Time;durP1;ratioP1;P1;durP2;ratioP2;P2;SDS_P1;SDS_P2;PMS_P1;PMS_P2;Temp;Humidity;BMP_temperature;BMP_pressure;BME280_temperature;BME280_humidity;BME280_pressure;Samples;Min_cycle;Max_cycle;Signal;HPM_P1;HPM_P2
2022/10/11 00:00:54;;;;;;;144.43;94.22;;;14.90;99.90;;;;;;5075626;28;20115;-57
2022/10/11 00:03:20;;;;;;;135.90;91.25;;;15.00;99.90;;;;;;5076008;28;20074;-57
2022/10/11 00:05:46;;;;;;;143.40;90.75;;;15.00;99.90;;;;;;5075827;28;20025;-57
2022/10/11 00:08:13;;;;;;;143.57;93.22;;;15.00;99.90;;;;;;5076030;28;20032;-57
2022/10/11 00:10:39;;;;;;;138.05;87.63;;;14.90;99.90;;;;;;5075710;28;20486;-57
2022/10/11 00:13:06;;;;;;;143.77;90.75;;;14.90;99.90;;;;;;5075498;28;20052;-57
2022/10/11 00:15:32;;;;;;;130.75;89.50;;;14.90;99.90;;;;;;5075572;28;20024;-57
2022/10/11 00:17:58;;;;;;;136.82;90.03;;;14.90;99.90;;;;;;5075651;28;20035;-57
2022/10/11 00:20:25;;;;;;;134.80;90.60;;;14.90;99.90;;;;;;5075503;28;20031;-57
2022/10/11 00:22:51;;;;;;;130.90;85.15;;;14.90;99.90;;;;;;5075339;28;20104;-57
2022/10/11 00:25:18;;;;;;;134.65;87.55;;;14.90;99.90;;;;;;5086422;28;20040;-57
2022/10/11 00:27:43;;;;;;;138.32;89.28;;;14.90;99.90;;;;;;5095800;28;20058;-57
2022/10/11 00:30:10;;;;;;;140.25;92.80;;;14.90;99.90;;;;;;5095549;28;20032;-57
2022/10/11 00:32:38;;;;;;;147.07;94.78;;;14.90;99.90;;;;;;5095422;28;20048;-57
2022/10/11 00:35:06;;;;;;;155.63;96.72;;;14.90;99.90;;;;;;5095346;28;20095;-57
2022/10/11 00:37:34;;;;;;;145.23;92.15;;;15.00;99.90;;;;;;5094302;28;20046;-57
2022/10/11 00:40:00;;;;;;;131.18;85.30;;;15.10;99.90;;;;;;5095390;28;20055;-57
2022/10/11 00:42:26;;;;;;;147.68;89.80;;;15.10;99.90;;;;;;5095503;28;20039;-57
2022/10/11 00:45:30;;;;;;;149.50;93.95;;;15.10;99.90;;;;;;5095224;28;20088;-57
2022/10/11 00:48:12;;;;;;;159.43;96.53;;;15.00;99.90;;;;;;5054904;28;20025;-57
2022/10/11 00:50:38;;;;;;;158.13;97.60;;;15.00;99.90;;;;;;5055055;28;20037;-57
2022/10/11 00:53:08;;;;;;;159.52;99.10;;;15.00;99.90;;;;;;5054892;28;20028;-57
2022/10/11 00:55:40;;;;;;;147.23;92.45;;;14.90;99.90;;;;;;5055077;28;20048;-57
2022/10/11 00:58:07;;;;;;;146.95;92.57;;;15.00;99.90;;;;;;5054714;28;20087;-57
2022/10/11 01:00:33;;;;;;;145.40;91.50;;;15.00;99.90;;;;;;5054850;28;20063;-57
2022/10/11 01:03:00;;;;;;;151.57;96.50;;;14.90;99.90;;;;;;5054826;28;20387;-57
2022/10/11 01:05:26;;;;;;;142.68;92.45;;;14.90;99.90;;;;;;5054592;28;20056;-57
2022/10/11 01:07:53;;;;;;;140.40;90.72;;;14.90;99.90;;;;;;5054780;28;20131;-57
2022/10/11 01:10:18;;;;;;;126.10;86.28;;;14.90;99.90;;;;;;5054832;28;20025;-57
2022/10/11 01:13:07;;;;;;;116.03;79.68;;;14.90;99.90;;;;;;5054567;28;20055;-57
2022/10/11 01:15:38;;;;;;;113.80;78.30;;;15.00;99.90;;;;;;5054601;28;20028;-57
2022/10/11 01:18:09;;;;;;;;;;;15.10;99.90;;;;;;5054996;28;20021;-57
2022/10/11 01:21:12;;;;;;;113.43;77.78;;;15.20;99.90;;;;;;5054600;28;19916;-57
2022/10/11 01:24:14;;;;;;;109.88;74.97;;;15.10;99.90;;;;;;5023586;28;20120;-57
2022/10/11 01:26:45;;;;;;;115.28;79.70;;;15.10;99.90;;;;;;5022028;28;20047;-57
2022/10/11 01:29:32;;;;;;;113.93;78.85;;;15.00;99.90;;;;;;5054425;28;20051;-57
2022/10/11 01:32:17;;;;;;;127.45;83.10;;;15.00;99.90;;;;;;5054333;28;20489;-57
2022/10/11 01:34:54;;;;;;;129.88;87.07;;;15.10;99.90;;;;;;5054036;28;20040;-57
2022/10/11 01:37:33;;;;;;;135.50;89.18;;;15.10;99.90;;;;;;5054213;28;20536;-57
2022/10/11 01:40:12;;;;;;;144.23;92.60;;;15.00;99.90;;;;;;5054249;28;20033;-57
2022/10/11 01:42:40;;;;;;;146.45;93.25;;;15.10;99.90;;;;;;5053621;28;20024;-57
2022/10/11 01:45:11;;;;;;;136.55;92.45;;;15.00;99.90;;;;;;5055183;28;20059;-57
2022/10/11 01:47:37;;;;;;;131.48;89.55;;;15.00;99.90;;;;;;5074136;28;20032;-57
2022/10/11 01:50:04;;;;;;;141.10;86.60;;;15.00;99.90;;;;;;5074452;28;20458;-57
2022/10/11 01:52:34;;;;;;;134.23;87.03;;;15.00;99.90;;;;;;5074160;28;20027;-57
2022/10/11 01:55:24;;;;;;;139.37;86.27;;;14.90;99.90;;;;;;5074356;28;20047;-57
2022/10/11 01:58:17;;;;;;;129.63;85.13;;;15.00;99.90;;;;;;5074074;28;20878;-57
2022/10/11 02:01:23;;;;;;;128.32;85.65;;;15.00;99.90;;;;;;5074244;28;20158;-57
2022/10/11 02:04:28;;;;;;;126.53;86.43;;;15.00;99.90;;;;;;5071289;28;20039;-57
2022/10/11 02:07:10;;;;;;;119.82;83.07;;;14.90;99.90;;;;;;5074135;28;20032;-57
2022/10/11 02:09:46;;;;;;;123.65;82.93;;;15.00;99.90;;;;;;5074039;28;20382;-57
2022/10/11 02:12:21;;;;;;;125.53;81.63;;;15.00;99.90;;;;;;5073750;28;20033;-57
2022/10/11 02:14:50;;;;;;;115.53;78.00;;;14.90;99.90;;;;;;5074012;28;20037;-57
2022/10/11 02:17:21;;;;;;;119.45;79.90;;;15.00;99.90;;;;;;5074138;28;20029;-57
2022/10/11 02:19:51;;;;;;;118.57;79.07;;;15.00;99.90;;;;;;5073944;28;20043;-57
2022/10/11 02:22:27;;;;;;;126.38;78.57;;;15.00;99.90;;;;;;5073862;28;20029;-57
2022/10/11 02:24:58;;;;;;;124.00;77.53;;;15.00;99.90;;;;;;5081011;28;20448;-57
2022/10/11 02:27:29;;;;;;;116.15;78.82;;;15.00;99.90;;;;;;5094350;28;20059;-57
2022/10/11 02:29:58;;;;;;;125.03;84.88;;;15.00;99.90;;;;;;5094203;28;20024;-57
2022/10/11 02:32:26;;;;;;;122.65;82.47;;;15.00;99.90;;;;;;5093922;28;20389;-57
2022/10/11 02:34:55;;;;;;;123.07;84.13;;;15.00;99.90;;;;;;5094031;28;20039;-57
2022/10/11 02:37:27;;;;;;;122.13;82.03;;;15.00;99.90;;;;;;5093919;28;20052;-57
2022/10/11 02:40:11;;;;;;;124.65;85.22;;;15.00;99.90;;;;;;5093941;28;20077;-57
2022/10/11 02:42:43;;;;;;;129.80;84.18;;;14.90;99.90;;;;;;5093954;28;20107;-57
2022/10/11 02:45:15;;;;;;;124.88;82.40;;;14.90;99.90;;;;;;5092321;28;20058;-57
2022/10/11 02:47:42;;;;;;;122.30;84.25;;;14.90;99.90;;;;;;5073460;28;20490;-57
2022/10/11 02:50:11;;;;;;;120.20;83.30;;;14.90;99.90;;;;;;5073782;28;20025;-57
2022/10/11 02:52:36;;;;;;;134.75;87.20;;;14.80;99.90;;;;;;5073573;28;20099;-57
2022/10/11 02:55:03;;;;;;;121.15;84.72;;;14.80;99.90;;;;;;5075784;28;20561;-57
2022/10/11 02:57:29;;;;;;;126.05;82.88;;;14.80;99.90;;;;;;5077186;28;20028;-57
2022/10/11 02:59:55;;;;;;;125.65;85.55;;;14.80;99.90;;;;;;5077013;28;20024;-57
2022/10/11 03:02:21;;;;;;;124.85;85.15;;;14.80;99.90;;;;;;5077039;28;20032;-57
2022/10/11 03:04:47;;;;;;;124.45;85.22;;;14.80;99.90;;;;;;5076983;28;20115;-57
2022/10/11 03:07:13;;;;;;;131.95;85.65;;;14.80;99.90;;;;;;5077078;28;20052;-57
2022/10/11 03:09:40;;;;;;;132.73;86.20;;;14.80;99.90;;;;;;5077061;28;20017;-57
2022/10/11 03:12:06;;;;;;;125.47;84.88;;;14.90;99.90;;;;;;5076937;28;20028;-57
2022/10/11 03:14:32;;;;;;;128.55;86.03;;;14.90;99.90;;;;;;5076940;28;20108;-57
2022/10/11 03:16:59;;;;;;;128.38;86.63;;;14.90;99.90;;;;;;5076545;28;20041;-57
2022/10/11 03:19:25;;;;;;;122.68;83.95;;;14.90;99.90;;;;;;5076757;28;20024;-57
2022/10/11 03:21:51;;;;;;;126.93;86.35;;;14.90;99.90;;;;;;5076693;28;20028;-57
2022/10/11 03:24:17;;;;;;;131.93;83.00;;;14.90;99.90;;;;;;5078569;28;20073;-57
2022/10/11 03:26:43;;;;;;;120.47;82.13;;;15.00;99.90;;;;;;5096987;28;20032;-57
2022/10/11 03:29:09;;;;;;;122.90;81.45;;;15.00;99.90;;;;;;5096899;28;20027;-57
2022/10/11 03:31:35;;;;;;;130.70;84.25;;;15.00;99.90;;;;;;5096711;28;20034;-57
2022/10/11 03:34:01;;;;;;;129.35;86.20;;;15.00;99.90;;;;;;5096613;28;20028;-57
2022/10/11 03:36:27;;;;;;;133.27;87.95;;;15.00;99.90;;;;;;5096657;28;20024;-57
2022/10/11 03:38:53;;;;;;;130.13;86.80;;;15.00;99.90;;;;;;5096550;28;20433;-57
2022/10/11 03:41:18;;;;;;;131.95;87.22;;;15.00;99.90;;;;;;5096590;28;20057;-57
2022/10/11 03:43:44;;;;;;;127.20;81.57;;;14.90;99.90;;;;;;5096667;28;20409;-57
2022/10/11 03:46:10;;;;;;;121.18;84.03;;;15.00;99.90;;;;;;5086424;28;20174;-57
2022/10/11 03:48:36;;;;;;;117.00;82.38;;;14.90;99.90;;;;;;5076184;28;20039;-57
2022/10/11 03:51:02;;;;;;;122.05;82.20;;;14.90;99.90;;;;;;5076237;28;20020;-57
2022/10/11 03:53:28;;;;;;;115.07;79.13;;;15.00;99.90;;;;;;5076036;28;20609;-57
2022/10/11 03:55:55;;;;;;;119.68;78.97;;;15.00;99.90;;;;;;5075936;28;20078;-57
2022/10/11 03:58:21;;;;;;;125.65;80.63;;;14.90;99.90;;;;;;5075919;28;20025;-57
2022/10/11 04:00:47;;;;;;;123.85;83.30;;;14.90;99.90;;;;;;5075896;28;20040;-57
2022/10/11 04:03:13;;;;;;;122.75;83.35;;;14.90;99.90;;;;;;5076182;28;20181;-57
2022/10/11 04:05:39;;;;;;;134.07;88.60;;;14.80;99.90;;;;;;5075155;28;20056;-57
2022/10/11 04:08:05;;;;;;;139.68;87.70;;;14.80;99.90;;;;;;5075771;28;20553;-57
2022/10/11 04:10:31;;;;;;;127.60;84.85;;;14.80;99.90;;;;;;5075827;28;20094;-57
2022/10/11 04:12:57;;;;;;;126.55;84.22;;;14.80;99.90;;;;;;5075585;28;20162;-57
2022/10/11 04:15:23;;;;;;;135.93;86.10;;;14.80;99.90;;;;;;5075605;28;20028;-57
2022/10/11 04:17:49;;;;;;;130.52;86.70;;;14.90;99.90;;;;;;5075845;28;20365;-57
2022/10/11 04:20:15;;;;;;;133.00;86.05;;;14.90;99.90;;;;;;5076110;28;20063;-57
2022/10/11 04:22:41;;;;;;;146.15;85.75;;;14.90;99.90;;;;;;5075202;28;20033;-57
2022/10/11 04:25:08;;;;;;;129.38;84.15;;;14.90;99.90;;;;;;5084470;28;20027;-57
2022/10/11 04:27:34;;;;;;;134.55;87.03;;;14.90;99.90;;;;;;5095649;28;20035;-57
2022/10/11 04:30:00;;;;;;;123.25;84.53;;;15.00;99.90;;;;;;5095600;28;20564;-57
2022/10/11 04:32:26;;;;;;;122.32;81.53;;;14.90;99.90;;;;;;5095432;28;20020;-57
2022/10/11 04:34:52;;;;;;;122.90;83.55;;;14.90;99.90;;;;;;5095387;28;20032;-57
2022/10/11 04:37:19;;;;;;;133.27;87.50;;;14.90;99.90;;;;;;5095572;28;20103;-57
2022/10/11 04:39:45;;;;;;;129.57;84.72;;;14.90;99.90;;;;;;5095559;28;20121;-57
2022/10/11 04:42:11;;;;;;;130.07;85.32;;;14.90;99.90;;;;;;5095418;28;20064;-57
2022/10/11 04:44:37;;;;;;;125.05;82.80;;;14.90;99.90;;;;;;5095327;28;20397;-57
2022/10/11 04:47:04;;;;;;;134.63;84.45;;;14.90;99.90;;;;;;5077853;28;20040;-57
2022/10/11 04:49:29;;;;;;;126.05;86.10;;;14.90;99.90;;;;;;5075121;28;20107;-57
2022/10/11 04:51:55;;;;;;;124.35;81.43;;;15.00;99.90;;;;;;5074983;28;20517;-57
2022/10/11 04:54:21;;;;;;;117.38;81.50;;;15.00;99.90;;;;;;5074877;28;20028;-57
2022/10/11 04:56:47;;;;;;;114.57;76.47;;;14.90;99.90;;;;;;5074827;28;20089;-57
2022/10/11 04:59:13;;;;;;;121.97;80.85;;;14.90;99.90;;;;;;5074782;28;20067;-57
2022/10/11 05:01:39;;;;;;;126.97;81.07;;;14.90;99.90;;;;;;5075015;28;20031;-57
2022/10/11 05:04:05;;;;;;;120.93;79.65;;;14.90;99.90;;;;;;5074782;28;20565;-57
2022/10/11 05:06:31;;;;;;;104.75;74.70;;;14.90;99.90;;;;;;5074709;28;20040;-57
2022/10/11 05:08:57;;;;;;;103.70;72.10;;;14.90;99.90;;;;;;5073288;28;20040;-57
2022/10/11 05:11:23;;;;;;;102.13;69.40;;;15.00;99.90;;;;;;5074403;28;20032;-57
2022/10/11 05:13:48;;;;;;;101.00;70.88;;;14.90;99.90;;;;;;5074205;28;20052;-57
2022/10/11 05:16:15;;;;;;;103.72;70.57;;;14.90;99.90;;;;;;5071371;28;20554;-57
2022/10/11 05:18:41;;;;;;;103.80;70.65;;;14.90;99.90;;;;;;5074129;28;20036;-57
2022/10/11 05:21:17;;;;;;;97.47;67.93;;;14.90;99.90;;;;;;5074299;28;20028;-57
2022/10/11 05:23:43;;;;;;;100.40;68.97;;;14.90;99.90;;;;;;5074247;28;20024;-57
2022/10/11 05:26:09;;;;;;;97.47;69.65;;;14.90;99.90;;;;;;5075194;28;20390;-57
2022/10/11 05:28:35;;;;;;;104.60;69.85;;;14.90;99.90;;;;;;5074265;28;20427;-57
2022/10/11 05:31:01;;;;;;;99.45;68.25;;;15.00;99.90;;;;;;5074248;28;20056;-57
2022/10/11 05:33:27;;;;;;;97.65;68.35;;;15.00;99.90;;;;;;5074148;28;20067;-57
2022/10/11 05:35:53;;;;;;;108.15;71.07;;;15.00;99.90;;;;;;5074474;28;20021;-57
2022/10/11 05:38:19;;;;;;;109.15;72.38;;;14.90;99.90;;;;;;5074409;28;20024;-57
2022/10/11 05:40:45;;;;;;;105.60;75.97;;;14.90;99.90;;;;;;5074258;28;20073;-57
2022/10/11 05:43:11;;;;;;;113.80;78.97;;;15.00;99.90;;;;;;5074257;28;20379;-57
2022/10/11 05:45:38;;;;;;;118.10;80.10;;;15.00;99.90;;;;;;5074074;28;20064;-57
2022/10/11 05:48:05;;;;;;;118.35;78.15;;;15.00;99.90;;;;;;5074066;28;20562;-57
2022/10/11 05:50:32;;;;;;;126.15;81.78;;;15.00;99.90;;;;;;5065849;28;20025;-57
2022/10/11 05:52:58;;;;;;;110.57;76.53;;;15.10;99.90;;;;;;5062951;28;20062;-57
2022/10/11 05:55:24;;;;;;;120.53;80.40;;;15.00;99.90;;;;;;5073124;28;20717;-57
2022/10/11 05:57:54;;;;;;;123.95;82.35;;;15.00;99.90;;;;;;5074064;28;20077;-57
2022/10/11 06:00:20;;;;;;;119.65;80.20;;;15.10;99.90;;;;;;5073948;28;20028;-57
2022/10/11 06:02:46;;;;;;;124.60;81.15;;;15.10;99.90;;;;;;5068877;28;20023;-57
2022/10/11 06:05:12;;;;;;;121.07;80.97;;;15.10;99.90;;;;;;5072664;28;20530;-57
2022/10/11 06:07:38;;;;;;;122.38;79.82;;;15.10;99.90;;;;;;5073762;28;20040;-57
2022/10/11 06:10:05;;;;;;;148.68;82.13;;;15.10;99.90;;;;;;5073450;28;20040;-57
2022/10/11 06:12:31;;;;;;;136.80;80.18;;;15.20;99.90;;;;;;5073483;28;20044;-57
2022/10/11 06:14:57;;;;;;;126.35;78.35;;;15.10;99.90;;;;;;5073934;28;20544;-57
2022/10/11 06:17:24;;;;;;;128.27;78.07;;;15.20;99.90;;;;;;5073068;28;20037;-57
2022/10/11 06:19:50;;;;;;;139.40;78.57;;;15.20;99.90;;;;;;5074538;28;20129;-57
2022/10/11 06:22:16;;;;;;;132.38;77.72;;;15.30;99.90;;;;;;5074379;28;20370;-57
2022/10/11 06:24:43;;;;;;;124.13;77.10;;;15.30;99.90;;;;;;5079339;28;20028;-57
2022/10/11 06:27:09;;;;;;;137.77;77.97;;;15.30;99.90;;;;;;5086369;28;20028;-57
2022/10/11 06:29:35;;;;;;;126.15;74.35;;;15.20;99.90;;;;;;5075351;28;20074;-57
2022/10/11 06:32:01;;;;;;;113.38;71.68;;;15.30;99.90;;;;;;5077686;28;20691;-57
2022/10/11 06:34:27;;;;;;;121.53;76.15;;;15.40;99.90;;;;;;5075195;28;20044;-57
2022/10/11 06:36:53;;;;;;;132.25;81.82;;;15.30;99.90;;;;;;5077483;28;20036;-57
2022/10/11 06:39:25;;;;;;;128.00;79.13;;;15.40;99.90;;;;;;5077198;28;20048;-57
2022/10/11 06:41:53;;;;;;;131.68;80.00;;;15.50;99.90;;;;;;5077021;28;20032;-57
2022/10/11 06:44:19;;;;;;;123.45;79.40;;;15.40;99.90;;;;;;5077210;28;20021;-57
2022/10/11 06:46:45;;;;;;;134.75;83.63;;;15.50;99.90;;;;;;5077014;28;20036;-57
2022/10/11 06:49:11;;;;;;;149.43;87.45;;;15.50;99.90;;;;;;5076991;28;20111;-57
2022/10/11 06:51:37;;;;;;;147.77;86.90;;;15.60;99.90;;;;;;5076671;28;20040;-57
2022/10/11 06:54:04;;;;;;;158.57;88.97;;;15.60;99.90;;;;;;5077637;28;20078;-57
2022/10/11 06:56:30;;;;;;;181.07;112.70;;;15.50;99.90;;;;;;5077790;28;20095;-57
2022/10/11 06:58:58;;;;;;;201.73;130.35;;;15.50;99.90;;;;;;5077277;28;20025;-57
2022/10/11 07:01:25;;;;;;;178.65;119.38;;;15.50;99.90;;;;;;5065914;28;20478;-57
2022/10/11 07:03:54;;;;;;;157.10;92.05;;;15.60;99.90;;;;;;5075165;28;20044;-57
2022/10/11 07:06:23;;;;;;;145.10;87.35;;;15.70;99.90;;;;;;5077697;28;20044;-57
2022/10/11 07:08:49;;;;;;;127.60;82.95;;;15.60;99.90;;;;;;5076933;28;20112;-57
2022/10/11 07:11:20;;;;;;;118.43;76.47;;;15.60;99.90;;;;;;5077680;28;20867;-57
2022/10/11 07:13:58;;;;;;;121.18;76.45;;;15.60;99.90;;;;;;5077411;28;20044;-57
2022/10/11 07:16:25;;;;;;;110.70;72.28;;;15.60;99.90;;;;;;5071014;28;20017;-57
2022/10/11 07:18:54;;;;;;;109.88;68.03;;;15.60;99.90;;;;;;5077616;28;20089;-57
2022/10/11 07:21:20;;;;;;;102.90;67.18;;;15.70;99.90;;;;;;5075910;28;20023;-57
2022/10/11 07:23:46;;;;;;;105.43;63.92;;;15.60;99.90;;;;;;5075948;28;20458;-57
2022/10/11 07:26:12;;;;;;;122.78;69.72;;;15.60;99.90;;;;;;5095357;28;20035;-57
2022/10/11 07:28:40;;;;;;;99.13;63.35;;;15.70;99.90;;;;;;5083471;28;20055;-57
2022/10/11 07:31:17;;;;;;;104.25;65.93;;;15.70;99.90;;;;;;5075791;28;20425;-57
2022/10/11 07:33:43;;;;;;;104.07;67.43;;;15.70;99.90;;;;;;5076578;28;20467;-57
2022/10/11 07:36:10;;;;;;;110.07;69.93;;;15.70;99.90;;;;;;5076073;28;20052;-57
2022/10/11 07:38:40;;;;;;;107.88;70.05;;;15.80;99.90;;;;;;5056535;28;20107;-57
2022/10/11 07:41:07;;;;;;;117.10;75.10;;;15.80;99.90;;;;;;5056972;28;20043;-57
2022/10/11 07:43:33;;;;;;;109.63;69.30;;;15.80;99.90;;;;;;5075740;28;20025;-57
2022/10/11 07:46:02;;;;;;;113.80;71.07;;;15.80;99.90;;;;;;5076655;28;20107;-57
2022/10/11 07:48:31;;;;;;;107.45;68.70;;;15.80;99.90;;;;;;5076773;28;20056;-57
2022/10/11 07:51:09;;;;;;;110.60;67.72;;;15.80;99.90;;;;;;5072959;28;20389;-57
2022/10/11 07:53:44;;;;;;;104.97;68.55;;;15.80;99.90;;;;;;5056422;28;20094;-57
2022/10/11 07:56:12;;;;;;;101.82;65.32;;;15.80;99.90;;;;;;5063970;28;20070;-57
2022/10/11 07:58:39;;;;;;;112.50;68.68;;;15.80;99.90;;;;;;5073503;28;20024;-57
2022/10/11 08:01:06;;;;;;;110.20;72.25;;;15.80;99.90;;;;;;5076337;28;20031;-57
2022/10/11 08:03:32;;;;;;;101.32;66.95;;;15.90;99.90;;;;;;5070234;28;20043;-57
2022/10/11 08:06:04;;;;;;;111.03;71.75;;;15.90;99.90;;;;;;5052669;28;20040;-56
2022/10/11 08:08:30;;;;;;;108.75;69.70;;;15.90;99.90;;;;;;5072882;28;20020;-57
2022/10/11 08:10:57;;;;;;;123.78;76.22;;;16.00;99.90;;;;;;5075712;28;20482;-57
2022/10/11 08:13:23;;;;;;;134.70;79.47;;;15.90;99.90;;;;;;5072511;28;20055;-58
2022/10/11 08:15:50;;;;;;;133.85;81.70;;;16.00;99.90;;;;;;5075039;28;20016;-57
2022/10/11 08:18:16;;;;;;;135.65;79.35;;;16.00;99.90;;;;;;5074985;28;20153;-57
2022/10/11 08:20:42;;;;;;;142.40;79.57;;;16.00;99.90;;;;;;5074059;28;20109;-56
2022/10/11 08:23:08;;;;;;;134.00;81.15;;;16.00;99.90;;;;;;5069065;28;20037;-69
2022/10/11 08:25:40;;;;;;;119.75;72.38;;;16.00;99.90;;;;;;5078021;28;20032;-68
2022/10/11 08:28:06;;;;;;;104.82;70.03;;;16.10;99.90;;;;;;5073492;28;20033;-68
2022/10/11 08:30:33;;;;;;;129.95;77.55;;;16.10;99.90;;;;;;5075204;28;20036;-68
2022/10/11 08:32:59;;;;;;;124.43;75.22;;;16.10;99.90;;;;;;5075486;28;20029;-68
2022/10/11 08:35:25;;;;;;;103.97;68.10;;;16.10;99.90;;;;;;5074483;28;20024;-70
2022/10/11 08:37:51;;;;;;;126.65;77.03;;;16.20;99.90;;;;;;5074845;28;20065;-68
2022/10/11 08:40:19;;;;;;;135.13;80.10;;;16.30;99.90;;;;;;5075160;28;20036;-68
2022/10/11 08:42:53;;;;;;;129.02;79.30;;;16.20;99.90;;;;;;5074859;28;20077;-68
2022/10/11 08:45:29;;;;;;;120.75;76.28;;;16.20;99.90;;;;;;5075161;28;20083;-68
2022/10/11 08:48:15;;;;;;;127.85;76.63;;;16.20;99.90;;;;;;5075321;28;20081;-70
2022/10/11 08:50:43;;;;;;;111.85;75.07;;;16.30;99.90;;;;;;5073535;28;20025;-68
2022/10/11 08:53:37;;;;;;;129.65;76.82;;;16.30;99.90;;;;;;5059161;28;20064;-69
2022/10/11 08:56:03;;;;;;;113.22;72.38;;;16.50;99.90;;;;;;5069181;28;20024;-69
2022/10/11 08:58:41;;;;;;;107.45;69.97;;;16.60;99.90;;;;;;5074632;28;20051;-69
2022/10/11 09:01:14;;;;;;;105.43;69.47;;;16.60;99.90;;;;;;5074310;28;20021;-69
2022/10/11 09:03:45;;;;;;;117.65;70.63;;;16.70;99.90;;;;;;5073020;28;20044;-69
2022/10/11 09:06:23;;;;;;;122.07;69.18;;;16.80;99.90;;;;;;5074333;28;20047;-69
2022/10/11 09:08:54;;;;;;;103.18;70.57;;;16.90;99.90;;;;;;5074511;28;20040;-69
2022/10/11 09:11:32;;;;;;;113.75;69.38;;;16.90;99.90;;;;;;5073801;28;20048;-69
2022/10/11 09:14:11;;;;;;;114.32;69.40;;;17.00;99.90;;;;;;5074381;28;20158;-69
2022/10/11 09:16:59;;;;;;;98.65;67.50;;;17.00;99.90;;;;;;5073818;28;20111;-69
2022/10/11 09:19:48;;;;;;;110.28;67.97;;;17.00;99.90;;;;;;5074316;28;20063;-69
2022/10/11 09:22:31;;;;;;;100.10;69.05;;;17.00;99.90;;;;;;5074503;28;20024;-69
2022/10/11 09:25:20;;;;;;;105.13;69.25;;;16.90;99.90;;;;;;5072883;28;20086;-69
2022/10/11 09:28:01;;;;;;;104.75;69.63;;;17.00;99.90;;;;;;5073779;28;20100;-69
2022/10/11 09:30:27;;;;;;;;;;;16.90;99.90;;;;;;5073846;28;20442;-68
2022/10/11 09:33:08;;;;;;;105.35;66.03;;;17.00;99.90;;;;;;5074138;28;19912;-69
2022/10/11 09:35:47;;;;;;;96.15;65.70;;;17.00;99.90;;;;;;5073959;28;20032;-69
2022/10/11 09:38:20;;;;;;;97.70;62.47;;;17.00;99.90;;;;;;5073753;28;20028;-69
2022/10/11 09:41:39;;;;;;;108.95;66.72;;;17.10;99.90;;;;;;5074089;28;20425;-69
2022/10/11 09:44:06;;;;;;;98.13;62.70;;;17.10;99.90;;;;;;4992024;28;20556;-69
2022/10/11 09:46:38;;;;;;;90.00;61.70;;;17.10;99.90;;;;;;4991123;28;20072;-69
2022/10/11 09:49:10;;;;;;;95.57;61.63;;;17.10;99.90;;;;;;4992290;28;20038;-69
2022/10/11 09:51:36;;;;;;;94.60;60.95;;;16.90;99.90;;;;;;4991816;28;20046;-68
2022/10/11 09:54:05;;;;;;;99.63;63.05;;;17.00;99.90;;;;;;4991531;28;20061;-68
2022/10/11 09:56:33;;;;;;;97.35;63.28;;;17.00;99.90;;;;;;4992230;28;20428;-69
2022/10/11 09:59:30;;;;;;;90.60;59.83;;;17.00;99.90;;;;;;4991712;28;20035;-68
2022/10/11 10:02:14;;;;;;;106.90;62.72;;;17.00;99.90;;;;;;4993524;28;20313;-68
2022/10/11 10:04:58;;;;;;;95.20;62.80;;;17.10;99.90;;;;;;4993843;28;20436;-68
2022/10/11 10:07:25;;;;;;;95.90;64.15;;;17.00;99.90;;;;;;4995255;28;20511;-68
2022/10/11 10:09:52;;;;;;;89.50;59.15;;;17.10;99.90;;;;;;4995572;28;20018;-68
2022/10/11 10:12:27;;;;;;;99.65;60.03;;;17.10;99.90;;;;;;4995671;28;20038;-69
2022/10/11 10:15:20;;;;;;;86.60;57.85;;;17.10;99.90;;;;;;4995197;28;20062;-69
2022/10/11 10:17:51;;;;;;;93.50;59.80;;;17.10;99.90;;;;;;5025997;28;20400;-69
2022/10/11 10:20:22;;;;;;;;;;;17.10;99.90;;;;;;5077977;28;20039;-69
2022/10/11 10:22:48;;;;;;;85.68;58.40;;;17.10;99.90;;;;;;5077777;28;19916;-68
2022/10/11 10:25:34;;;;;;;115.60;66.03;;;17.10;99.90;;;;;;5087679;28;20059;-69
2022/10/11 10:28:18;;;;;;;127.88;82.93;;;17.00;99.90;;;;;;5097435;28;20184;-68
2022/10/11 10:31:02;;;;;;;103.07;64.65;;;17.00;99.90;;;;;;5097682;28;20367;-68
2022/10/11 10:33:34;;;;;;;107.50;62.92;;;17.00;99.90;;;;;;5097816;28;20040;-68
2022/10/11 10:36:05;;;;;;;89.10;60.67;;;17.10;99.90;;;;;;5097258;28;20074;-69
2022/10/11 10:38:39;;;;;;;90.47;60.60;;;17.00;99.90;;;;;;5097586;28;20076;-69
2022/10/11 10:41:12;;;;;;;90.45;60.67;;;17.10;99.90;;;;;;5077003;28;20043;-69
2022/10/11 10:43:41;;;;;;;92.45;59.08;;;17.10;99.90;;;;;;5076461;28;20029;-69
2022/10/11 10:46:10;;;;;;;90.32;57.85;;;17.20;99.90;;;;;;5074054;28;20459;-69
2022/10/11 10:48:40;;;;;;;104.05;67.53;;;17.20;99.90;;;;;;5076702;28;20044;-69
2022/10/11 10:51:19;;;;;;;100.95;65.63;;;17.10;99.90;;;;;;5075750;28;20036;-69
2022/10/11 10:54:27;;;;;;;90.72;61.90;;;17.10;99.90;;;;;;5076949;28;20382;-69
2022/10/11 10:56:57;;;;;;;84.18;57.63;;;17.10;99.90;;;;;;5076845;28;20156;-69
2022/10/11 10:59:55;;;;;;;82.03;58.08;;;17.10;99.90;;;;;;5076657;28;20484;-69
2022/10/11 11:02:43;;;;;;;95.10;60.42;;;17.10;99.90;;;;;;5059819;28;20394;-69
2022/10/11 11:05:36;;;;;;;100.70;60.03;;;17.00;99.90;;;;;;5074930;28;20051;-69
2022/10/11 11:08:33;;;;;;;93.43;59.58;;;17.10;99.90;;;;;;5056837;28;20020;-69
2022/10/11 11:11:07;;;;;;;79.25;54.67;;;17.00;99.90;;;;;;5056529;28;20124;-69
2022/10/11 11:13:42;;;;;;;93.85;56.78;;;17.10;99.90;;;;;;5056436;28;20051;-69
2022/10/11 11:16:15;;;;;;;86.18;54.72;;;17.20;99.90;;;;;;5057540;28;20125;-69
2022/10/11 11:18:53;;;;;;;80.70;54.65;;;17.10;99.90;;;;;;5076362;28;20023;-69
2022/10/11 11:21:27;;;;;;;108.30;66.22;;;17.20;99.90;;;;;;5075592;28;20035;-69
2022/10/11 11:24:10;;;;;;;112.07;70.15;;;17.20;99.90;;;;;;5076122;28;20024;-69
2022/10/11 11:27:00;;;;;;;161.73;98.65;;;17.20;99.90;;;;;;5063164;28;20036;-69
2022/10/11 11:29:51;;;;;;;160.25;100.32;;;17.20;99.90;;;;;;5076239;28;20031;-69
2022/10/11 11:32:20;;;;;;;;;;;17.20;99.90;;;;;;5056692;28;20037;-69
2022/10/11 11:34:51;;;;;;;135.55;85.90;;;17.10;99.90;;;;;;5056116;28;19908;-69
2022/10/11 11:37:40;;;;;;;111.85;65.85;;;17.20;99.90;;;;;;5056372;28;20378;-69
2022/10/11 11:40:17;;;;;;;95.63;59.90;;;17.20;99.90;;;;;;5056099;28;20021;-69
2022/10/11 11:42:54;;;;;;;82.93;53.75;;;17.30;99.90;;;;;;5056426;28;20056;-69
2022/10/11 11:45:32;;;;;;;80.32;53.78;;;17.40;99.90;;;;;;5058867;28;20032;-69
2022/10/11 11:48:17;;;;;;;80.18;53.05;;;17.40;99.90;;;;;;5076018;28;20040;-69
2022/10/11 11:50:51;;;;;;;71.20;48.45;;;17.40;99.90;;;;;;5075670;28;20029;-69
2022/10/11 11:53:31;;;;;;;82.13;51.40;;;17.40;99.90;;;;;;5075920;28;20032;-68
2022/10/11 11:56:13;;;;;;;73.30;48.60;;;17.40;99.90;;;;;;5076024;28;20024;-69
2022/10/11 11:58:53;;;;;;;75.93;52.30;;;17.50;99.90;;;;;;5076222;28;20016;-71
2022/10/11 12:01:41;;;;;;;89.67;53.47;;;17.60;99.90;;;;;;5075994;28;20058;-71
2022/10/11 12:04:24;;;;;;;88.85;50.10;;;17.70;99.90;;;;;;5075513;28;20031;-72
2022/10/11 12:07:09;;;;;;;76.30;49.40;;;17.80;99.90;;;;;;5070843;28;20051;-71
2022/10/11 12:09:36;;;;;;;73.25;47.83;;;17.80;99.90;;;;;;5075631;28;20425;-70
2022/10/11 12:12:08;;;;;;;73.45;48.00;;;17.90;99.90;;;;;;5075034;28;20031;-70
2022/10/11 12:14:40;;;;;;;67.13;46.88;;;17.90;99.90;;;;;;5075487;28;20037;-71
2022/10/11 12:17:15;;;;;;;71.30;48.15;;;17.90;99.90;;;;;;5075321;28;20111;-70
2022/10/11 12:20:03;;;;;;;76.00;50.72;;;17.90;99.90;;;;;;5075164;28;20397;-71
2022/10/11 12:22:29;;;;;;;68.43;48.65;;;17.90;99.90;;;;;;5043205;28;20035;-70
2022/10/11 12:25:08;;;;;;;74.32;48.55;;;18.10;99.90;;;;;;5076066;28;20029;-71
2022/10/11 12:27:56;;;;;;;71.20;47.08;;;18.00;99.90;;;;;;5073000;28;20569;-71
2022/10/11 12:30:46;;;;;;;77.43;47.30;;;18.10;99.90;;;;;;5070289;28;20062;-71
2022/10/11 12:33:47;;;;;;;72.00;46.17;;;18.00;99.90;;;;;;5069411;28;20032;-70
2022/10/11 12:36:31;;;;;;;66.68;45.63;;;18.00;99.90;;;;;;5067754;28;20029;-70
2022/10/11 12:39:19;;;;;;;74.25;47.00;;;18.10;99.90;;;;;;5063442;28;20098;-71
2022/10/11 12:42:04;;;;;;;61.65;44.50;;;18.20;99.90;;;;;;5068371;28;20051;-71
2022/10/11 12:44:30;;;;;;;74.22;47.58;;;18.10;99.90;;;;;;5074187;28;20035;-70